Jiaoxian, China
Current Conditions -  °F | °C
As of 2:00 PM on Friday 19 Dec 2014 (Local Time) from ZSQD Reporting Station
Clear Clear  
Wind Chill: 43°   Ceiling: Unl
Heat Index: 48°   Visibility: 6mi
Dew Point: 25°   Wind: 11mph
Humidity: 40%   Direction: 180°S
Pressure: 30.12"   Gusts: NA
Location:  36.28°N, 120°E
Report Text: ZSQD 190600Z 18005MPS 160V220 CAVOK 09/M04 Q1020 NOSIG
Loading
Personal Weather Stations






























Interactive Weather Map New forecast layout! Learn more

10-Day Weather Forecast

Advertisements
Track Severe Weather on mobile